Other Surface Observations
Issued by NWS Great Falls, MT

Home | Current Version | Previous Version | Text Only | Print | Product List | Glossary On
Versions: 1 2 3 4 5 6 7 8 9 10 11 12 13 14 15 16 17 18 19 20 21 22 23 24 25 26 27 28 29 30 31 32 33 34 35 36 37 38 39 40 41 42 43 44 45 46 47 48 49 50
013
SXUS55 KTFX 060144
OSOTFX
AREA AWOS OBSERVATIONS
NATIONAL WEATHER SERVICE GREAT FALLS MT
0644 PM MST FRI FEB 05 2016

METAR KPWD 060145Z AUTO 25006KT 10SM 01/M04 A2998 RMK PLENTYWOOD
METAR KPO1 060145Z AUTO 24005KT 10SM 01/M03 A3000 RMK POPLAR
METAR K1S3 060145Z AUTO 18004KT 10SM 05/M06 A3008 RMK FORSYTH
METAR KS71 060145Z AUTO 24012G16KT 10SM 07/M04 A2996 RMK CHINOOK
METAR K38S 060145Z AUTO 25006KT 10SM M02/M06 A3026 RMK DEER LODGE
METAR K3U3 060145Z AUTO 18011G16KT 10SM 03/M06 A3025 RMK ANACONDA
METAR K6S5 060145Z AUTO 00000KT 10SM 06/M03 A3027 RMK HAMILTON
METAR KS59 060145Z AUTO 00000KT 10SM 02/M01 A3020 RMK LIBBY



USA.gov is the U.S. government's official web portal to all federal, state and local government web resources and services.